sensor_id;sensor_type;location;lat;lon;timestamp;pressure;altitude;pressure_sealevel;temperature;humidity
20009;BME280;10165;42.662;23.260;2022-08-21T00:00:24;93636.78;;;22.50;72.08
20009;BME280;10165;42.662;23.260;2022-08-21T00:02:57;93641.47;;;22.62;71.82
20009;BME280;10165;42.662;23.260;2022-08-21T00:05:26;93647.25;;;22.80;71.35
20009;BME280;10165;42.662;23.260;2022-08-21T00:07:53;93639.81;;;22.68;70.94
20009;BME280;10165;42.662;23.260;2022-08-21T00:10:21;93630.28;;;22.60;71.21
20009;BME280;10165;42.662;23.260;2022-08-21T00:12:48;93637.16;;;22.64;70.92
20009;BME280;10165;42.662;23.260;2022-08-21T00:15:19;93632.00;;;22.54;70.43
20009;BME280;10165;42.662;23.260;2022-08-21T00:17:46;93634.28;;;21.98;72.47
20009;BME280;10165;42.662;23.260;2022-08-21T00:20:14;93629.72;;;21.95;74.20
20009;BME280;10165;42.662;23.260;2022-08-21T00:22:42;93621.53;;;22.11;73.36
20009;BME280;10165;42.662;23.260;2022-08-21T00:25:10;93617.50;;;22.15;72.26
20009;BME280;10165;42.662;23.260;2022-08-21T00:27:37;93630.25;;;22.18;72.97
20009;BME280;10165;42.662;23.260;2022-08-21T00:30:05;93612.91;;;22.12;72.78
20009;BME280;10165;42.662;23.260;2022-08-21T00:32:33;93617.69;;;22.37;72.34
20009;BME280;10165;42.662;23.260;2022-08-21T00:34:59;93612.78;;;22.32;73.00
20009;BME280;10165;42.662;23.260;2022-08-21T00:37:26;93619.59;;;22.24;73.26
20009;BME280;10165;42.662;23.260;2022-08-21T00:39:55;93613.88;;;22.34;72.79
20009;BME280;10165;42.662;23.260;2022-08-21T00:42:23;93616.84;;;22.11;73.17
20009;BME280;10165;42.662;23.260;2022-08-21T00:44:50;93616.97;;;22.49;71.22
20009;BME280;10165;42.662;23.260;2022-08-21T00:47:18;93614.91;;;22.53;70.54
20009;BME280;10165;42.662;23.260;2022-08-21T00:49:44;93615.69;;;22.54;70.55
20009;BME280;10165;42.662;23.260;2022-08-21T00:52:30;93622.41;;;22.49;69.24
20009;BME280;10165;42.662;23.260;2022-08-21T00:54:58;93616.16;;;22.36;70.50
20009;BME280;10165;42.662;23.260;2022-08-21T00:57:29;93617.84;;;22.59;69.56
20009;BME280;10165;42.662;23.260;2022-08-21T01:00:00;93610.53;;;22.14;71.03
20009;BME280;10165;42.662;23.260;2022-08-21T01:02:27;93614.69;;;21.58;73.60
20009;BME280;10165;42.662;23.260;2022-08-21T01:04:56;93609.28;;;21.86;73.71
20009;BME280;10165;42.662;23.260;2022-08-21T01:07:25;93611.72;;;21.68;73.66
20009;BME280;10165;42.662;23.260;2022-08-21T01:09:53;93611.16;;;21.89;73.25
20009;BME280;10165;42.662;23.260;2022-08-21T01:12:19;93605.66;;;22.22;71.26
20009;BME280;10165;42.662;23.260;2022-08-21T01:14:46;93604.25;;;21.56;72.16
20009;BME280;10165;42.662;23.260;2022-08-21T01:17:14;93595.94;;;21.31;73.67
20009;BME280;10165;42.662;23.260;2022-08-21T01:19:42;93589.88;;;21.39;73.30
20009;BME280;10165;42.662;23.260;2022-08-21T01:22:09;93582.88;;;21.06;75.38
20009;BME280;10165;42.662;23.260;2022-08-21T01:24:36;93596.94;;;21.37;74.15
20009;BME280;10165;42.662;23.260;2022-08-21T01:27:03;93589.50;;;21.05;74.92
20009;BME280;10165;42.662;23.260;2022-08-21T01:29:41;93578.25;;;21.39;73.95
20009;BME280;10165;42.662;23.260;2022-08-21T01:32:13;93579.00;;;21.39;73.78
20009;BME280;10165;42.662;23.260;2022-08-21T01:34:44;93592.94;;;21.58;73.92
20009;BME280;10165;42.662;23.260;2022-08-21T01:37:12;93595.53;;;21.93;72.00
20009;BME280;10165;42.662;23.260;2022-08-21T01:39:43;93592.22;;;22.02;71.42
20009;BME280;10165;42.662;23.260;2022-08-21T01:42:10;93600.88;;;21.81;71.62
20009;BME280;10165;42.662;23.260;2022-08-21T01:44:37;93608.81;;;21.75;72.65
20009;BME280;10165;42.662;23.260;2022-08-21T01:47:07;93600.75;;;21.72;72.60
20009;BME280;10165;42.662;23.260;2022-08-21T01:49:35;93598.69;;;21.92;72.13
20009;BME280;10165;42.662;23.260;2022-08-21T01:52:04;93589.16;;;21.84;72.08
20009;BME280;10165;42.662;23.260;2022-08-21T01:54:35;93589.34;;;21.93;71.52
20009;BME280;10165;42.662;23.260;2022-08-21T01:57:02;93581.84;;;21.81;72.09
20009;BME280;10165;42.662;23.260;2022-08-21T01:59:29;93585.59;;;22.03;72.20
20009;BME280;10165;42.662;23.260;2022-08-21T02:01:56;93594.53;;;22.16;70.94
20009;BME280;10165;42.662;23.260;2022-08-21T02:04:23;93595.91;;;22.37;70.50
20009;BME280;10165;42.662;23.260;2022-08-21T02:06:50;93598.59;;;22.24;70.30
20009;BME280;10165;42.662;23.260;2022-08-21T02:09:16;93601.09;;;22.19;70.52
20009;BME280;10165;42.662;23.260;2022-08-21T02:11:43;93605.81;;;21.86;71.61
20009;BME280;10165;42.662;23.260;2022-08-21T02:14:11;93594.13;;;21.73;72.38
20009;BME280;10165;42.662;23.260;2022-08-21T02:16:41;93607.84;;;21.82;71.46
20009;BME280;10165;42.662;23.260;2022-08-21T02:19:09;93614.25;;;21.75;71.39
20009;BME280;10165;42.662;23.260;2022-08-21T02:21:36;93608.53;;;21.70;71.53
20009;BME280;10165;42.662;23.260;2022-08-21T02:24:04;93616.00;;;21.82;71.62
20009;BME280;10165;42.662;23.260;2022-08-21T02:26:31;93609.72;;;21.85;71.57
20009;BME280;10165;42.662;23.260;2022-08-21T02:28:58;93605.81;;;21.86;71.79
20009;BME280;10165;42.662;23.260;2022-08-21T02:31:25;93610.38;;;22.05;70.75
20009;BME280;10165;42.662;23.260;2022-08-21T02:33:52;93617.00;;;22.04;70.93
20009;BME280;10165;42.662;23.260;2022-08-21T02:36:19;93615.44;;;22.19;70.17
20009;BME280;10165;42.662;23.260;2022-08-21T02:38:45;93615.00;;;22.50;68.91
20009;BME280;10165;42.662;23.260;2022-08-21T02:41:16;93620.31;;;22.40;68.63
20009;BME280;10165;42.662;23.260;2022-08-21T02:43:44;93616.69;;;22.31;68.64
20009;BME280;10165;42.662;23.260;2022-08-21T02:46:12;93619.13;;;22.42;68.43
20009;BME280;10165;42.662;23.260;2022-08-21T02:48:40;93618.19;;;22.61;67.84
20009;BME280;10165;42.662;23.260;2022-08-21T02:51:13;93612.00;;;22.31;68.66
20009;BME280;10165;42.662;23.260;2022-08-21T02:53:40;93604.25;;;22.59;67.92
20009;BME280;10165;42.662;23.260;2022-08-21T02:56:10;93606.50;;;22.48;68.15
20009;BME280;10165;42.662;23.260;2022-08-21T02:58:44;93605.94;;;22.40;68.78
20009;BME280;10165;42.662;23.260;2022-08-21T03:01:11;93609.69;;;22.17;69.69
20009;BME280;10165;42.662;23.260;2022-08-21T03:03:41;93622.66;;;21.65;70.75
20009;BME280;10165;42.662;23.260;2022-08-21T03:06:10;93617.56;;;21.18;73.65
20009;BME280;10165;42.662;23.260;2022-08-21T03:08:38;93617.72;;;21.11;75.06
20009;BME280;10165;42.662;23.260;2022-08-21T03:11:05;93615.09;;;21.40;73.87
20009;BME280;10165;42.662;23.260;2022-08-21T03:13:35;93611.97;;;21.58;73.25
20009;BME280;10165;42.662;23.260;2022-08-21T03:16:02;93620.28;;;21.51;72.45
20009;BME280;10165;42.662;23.260;2022-08-21T03:18:30;93616.63;;;21.25;73.98
20009;BME280;10165;42.662;23.260;2022-08-21T03:20:57;93625.97;;;21.24;73.86
20009;BME280;10165;42.662;23.260;2022-08-21T03:23:24;93620.38;;;20.95;74.75
20009;BME280;10165;42.662;23.260;2022-08-21T03:25:58;93609.94;;;20.93;75.56
20009;BME280;10165;42.662;23.260;2022-08-21T03:28:25;93612.91;;;21.19;75.35
20009;BME280;10165;42.662;23.260;2022-08-21T03:30:52;93612.63;;;21.13;73.54
20009;BME280;10165;42.662;23.260;2022-08-21T03:33:19;93611.66;;;21.04;74.19
20009;BME280;10165;42.662;23.260;2022-08-21T03:35:56;93599.31;;;20.83;75.04
20009;BME280;10165;42.662;23.260;2022-08-21T03:38:26;93604.69;;;21.38;74.24
20009;BME280;10165;42.662;23.260;2022-08-21T03:40:53;93600.16;;;21.48;72.59
20009;BME280;10165;42.662;23.260;2022-08-21T03:43:20;93605.00;;;21.24;73.18
20009;BME280;10165;42.662;23.260;2022-08-21T03:45:47;93611.97;;;21.25;73.80
20009;BME280;10165;42.662;23.260;2022-08-21T03:48:14;93615.69;;;21.15;73.59
20009;BME280;10165;42.662;23.260;2022-08-21T03:50:43;93614.00;;;21.54;72.74
20009;BME280;10165;42.662;23.260;2022-08-21T03:53:12;93621.03;;;21.51;72.72
20009;BME280;10165;42.662;23.260;2022-08-21T03:55:48;93621.22;;;21.60;72.46
20009;BME280;10165;42.662;23.260;2022-08-21T03:58:17;93621.13;;;21.48;72.27
20009;BME280;10165;42.662;23.260;2022-08-21T04:00:47;93610.84;;;21.71;71.93
20009;BME280;10165;42.662;23.260;2022-08-21T04:03:15;93630.66;;;21.72;71.60
20009;BME280;10165;42.662;23.260;2022-08-21T04:05:42;93623.94;;;21.76;71.31
20009;BME280;10165;42.662;23.260;2022-08-21T04:08:09;93628.03;;;21.52;72.37
20009;BME280;10165;42.662;23.260;2022-08-21T04:10:37;93628.19;;;21.61;72.71
20009;BME280;10165;42.662;23.260;2022-08-21T04:13:05;93637.34;;;21.83;72.19
20009;BME280;10165;42.662;23.260;2022-08-21T04:15:32;93631.66;;;21.78;71.89
20009;BME280;10165;42.662;23.260;2022-08-21T04:17:59;93630.28;;;21.70;72.40
20009;BME280;10165;42.662;23.260;2022-08-21T04:20:27;93631.75;;;21.74;72.62
20009;BME280;10165;42.662;23.260;2022-08-21T04:22:53;93625.34;;;21.81;72.54
20009;BME280;10165;42.662;23.260;2022-08-21T04:25:22;93623.19;;;21.92;71.92
20009;BME280;10165;42.662;23.260;2022-08-21T04:27:49;93624.53;;;21.84;72.73
20009;BME280;10165;42.662;23.260;2022-08-21T04:30:16;93632.75;;;21.97;72.08
20009;BME280;10165;42.662;23.260;2022-08-21T04:32:45;93633.38;;;21.72;73.08
20009;BME280;10165;42.662;23.260;2022-08-21T04:35:17;93632.94;;;21.57;73.12
20009;BME280;10165;42.662;23.260;2022-08-21T04:37:44;93626.91;;;21.33;75.03
20009;BME280;10165;42.662;23.260;2022-08-21T04:40:13;93626.91;;;21.33;74.60
20009;BME280;10165;42.662;23.260;2022-08-21T04:42:43;93629.72;;;21.30;74.99
20009;BME280;10165;42.662;23.260;2022-08-21T04:45:38;93625.97;;;21.24;74.92
20009;BME280;10165;42.662;23.260;2022-08-21T04:48:07;93621.75;;;21.03;76.86
20009;BME280;10165;42.662;23.260;2022-08-21T04:50:46;93622.56;;;21.36;74.99
20009;BME280;10165;42.662;23.260;2022-08-21T04:53:33;93629.34;;;21.28;74.10
20009;BME280;10165;42.662;23.260;2022-08-21T04:56:22;93612.81;;;21.55;74.14
20009;BME280;10165;42.662;23.260;2022-08-21T04:58:50;93620.00;;;21.77;73.40
20009;BME280;10165;42.662;23.260;2022-08-21T05:01:22;93622.72;;;21.77;73.92
20009;BME280;10165;42.662;23.260;2022-08-21T05:03:57;93628.59;;;21.76;74.28
20009;BME280;10165;42.662;23.260;2022-08-21T05:06:26;93622.97;;;21.83;72.90
20009;BME280;10165;42.662;23.260;2022-08-21T05:08:55;93633.00;;;21.86;72.88
20009;BME280;10165;42.662;23.260;2022-08-21T05:11:29;93636.94;;;21.53;75.38
20009;BME280;10165;42.662;23.260;2022-08-21T05:13:56;93640.31;;;22.05;73.01
20009;BME280;10165;42.662;23.260;2022-08-21T05:16:23;93627.06;;;22.07;72.72
20009;BME280;10165;42.662;23.260;2022-08-21T05:19:04;93636.41;;;21.90;72.85
20009;BME280;10165;42.662;23.260;2022-08-21T05:21:32;93634.72;;;21.80;74.68
20009;BME280;10165;42.662;23.260;2022-08-21T05:23:59;93632.00;;;21.96;74.34
20009;BME280;10165;42.662;23.260;2022-08-21T05:26:26;93634.00;;;22.08;73.09
20009;BME280;10165;42.662;23.260;2022-08-21T05:28:53;93628.47;;;22.12;72.61
20009;BME280;10165;42.662;23.260;2022-08-21T05:31:20;93625.34;;;22.13;72.20
20009;BME280;10165;42.662;23.260;2022-08-21T05:33:46;93624.66;;;22.09;72.06
20009;BME280;10165;42.662;23.260;2022-08-21T05:36:18;93625.69;;;22.15;71.53
20009;BME280;10165;42.662;23.260;2022-08-21T05:38:45;93615.63;;;22.12;72.18
20009;BME280;10165;42.662;23.260;2022-08-21T05:41:12;93622.97;;;21.83;72.78
20009;BME280;10165;42.662;23.260;2022-08-21T05:43:39;93623.00;;;21.99;72.43
20009;BME280;10165;42.662;23.260;2022-08-21T05:46:07;93616.28;;;22.04;73.45
20009;BME280;10165;42.662;23.260;2022-08-21T05:48:35;93619.25;;;22.51;71.52
20009;BME280;10165;42.662;23.260;2022-08-21T05:51:11;93612.41;;;22.17;69.33
20009;BME280;10165;42.662;23.260;2022-08-21T05:53:43;93618.31;;;22.00;73.16
20009;BME280;10165;42.662;23.260;2022-08-21T05:56:11;93617.09;;;22.01;72.36
20009;BME280;10165;42.662;23.260;2022-08-21T05:58:38;93632.50;;;21.59;74.19
20009;BME280;10165;42.662;23.260;2022-08-21T06:01:05;93620.44;;;21.76;73.56
20009;BME280;10165;42.662;23.260;2022-08-21T06:03:35;93617.75;;;21.92;72.16
20009;BME280;10165;42.662;23.260;2022-08-21T06:06:03;93623.75;;;21.83;71.88
20009;BME280;10165;42.662;23.260;2022-08-21T06:08:30;93617.06;;;21.72;73.35
20009;BME280;10165;42.662;23.260;2022-08-21T06:10:58;93622.09;;;22.18;71.72
20009;BME280;10165;42.662;23.260;2022-08-21T06:13:27;93618.56;;;22.47;69.59
20009;BME280;10165;42.662;23.260;2022-08-21T06:16:06;93610.25;;;22.25;71.73
20009;BME280;10165;42.662;23.260;2022-08-21T06:18:35;93613.06;;;22.63;70.40
20009;BME280;10165;42.662;23.260;2022-08-21T06:21:02;93618.72;;;22.56;68.75
20009;BME280;10165;42.662;23.260;2022-08-21T06:23:32;93613.13;;;22.34;69.03
20009;BME280;10165;42.662;23.260;2022-08-21T06:26:01;93617.31;;;22.22;71.24
20009;BME280;10165;42.662;23.260;2022-08-21T06:28:28;93609.78;;;22.55;67.94
20009;BME280;10165;42.662;23.260;2022-08-21T06:30:55;93617.72;;;22.91;67.10
20009;BME280;10165;42.662;23.260;2022-08-21T06:33:21;93610.09;;;23.37;65.12
20009;BME280;10165;42.662;23.260;2022-08-21T06:35:48;93614.88;;;23.70;64.75
20009;BME280;10165;42.662;23.260;2022-08-21T06:38:15;93617.41;;;23.65;64.74
20009;BME280;10165;42.662;23.260;2022-08-21T06:40:42;93616.19;;;23.15;66.58
20009;BME280;10165;42.662;23.260;2022-08-21T06:43:15;93614.59;;;23.43;65.97
20009;BME280;10165;42.662;23.260;2022-08-21T06:45:43;93616.94;;;22.36;67.40
20009;BME280;10165;42.662;23.260;2022-08-21T06:48:10;93624.47;;;23.12;65.49
20009;BME280;10165;42.662;23.260;2022-08-21T06:50:43;93609.91;;;23.18;65.10
20009;BME280;10165;42.662;23.260;2022-08-21T06:53:12;93614.94;;;23.45;64.29
20009;BME280;10165;42.662;23.260;2022-08-21T06:55:40;93615.88;;;23.51;64.39
20009;BME280;10165;42.662;23.260;2022-08-21T06:58:07;93617.63;;;23.32;64.23
20009;BME280;10165;42.662;23.260;2022-08-21T07:00:35;93630.25;;;23.01;66.06
20009;BME280;10165;42.662;23.260;2022-08-21T07:03:04;93623.28;;;23.13;66.62
20009;BME280;10165;42.662;23.260;2022-08-21T07:05:31;93620.06;;;23.90;64.33
20009;BME280;10165;42.662;23.260;2022-08-21T07:07:58;93619.84;;;23.97;63.27
20009;BME280;10165;42.662;23.260;2022-08-21T07:10:26;93627.44;;;23.43;65.24
20009;BME280;10165;42.662;23.260;2022-08-21T07:12:53;93629.22;;;23.96;63.91
20009;BME280;10165;42.662;23.260;2022-08-21T07:15:28;93628.09;;;24.06;62.39
20009;BME280;10165;42.662;23.260;2022-08-21T07:17:57;93629.22;;;23.96;64.48
20009;BME280;10165;42.662;23.260;2022-08-21T07:20:24;93638.97;;;22.96;66.51
20009;BME280;10165;42.662;23.260;2022-08-21T07:22:50;93633.66;;;23.56;65.26
20009;BME280;10165;42.662;23.260;2022-08-21T07:25:17;93626.47;;;23.37;63.22
20009;BME280;10165;42.662;23.260;2022-08-21T07:27:44;93634.78;;;23.46;63.47
20009;BME280;10165;42.662;23.260;2022-08-21T07:30:11;93633.13;;;23.48;62.61
20009;BME280;10165;42.662;23.260;2022-08-21T07:32:37;93620.56;;;23.38;65.52
20009;BME280;10165;42.662;23.260;2022-08-21T07:35:04;93615.69;;;23.46;64.04
20009;BME280;10165;42.662;23.260;2022-08-21T07:37:31;93608.59;;;23.95;62.84
20009;BME280;10165;42.662;23.260;2022-08-21T07:39:58;93605.78;;;23.86;63.95
20009;BME280;10165;42.662;23.260;2022-08-21T07:42:24;93614.13;;;24.04;62.93
20009;BME280;10165;42.662;23.260;2022-08-21T07:44:54;93606.47;;;23.77;63.79
20009;BME280;10165;42.662;23.260;2022-08-21T07:47:21;93605.88;;;23.48;63.55
20009;BME280;10165;42.662;23.260;2022-08-21T07:50:08;93601.34;;;23.79;62.60
20009;BME280;10165;42.662;23.260;2022-08-21T07:52:35;93603.38;;;23.88;63.58
20009;BME280;10165;42.662;23.260;2022-08-21T07:55:02;93602.63;;;23.88;62.42
20009;BME280;10165;42.662;23.260;2022-08-21T07:57:32;93599.31;;;23.58;62.58
20009;BME280;10165;42.662;23.260;2022-08-21T07:59:59;93605.25;;;23.91;64.99
20009;BME280;10165;42.662;23.260;2022-08-21T08:02:28;93607.13;;;23.69;63.32
20009;BME280;10165;42.662;23.260;2022-08-21T08:05:03;93617.44;;;23.99;61.62
20009;BME280;10165;42.662;23.260;2022-08-21T08:07:30;93608.13;;;23.50;62.66
20009;BME280;10165;42.662;23.260;2022-08-21T08:09:58;93612.94;;;24.05;64.49
20009;BME280;10165;42.662;23.260;2022-08-21T08:12:25;93606.03;;;24.13;62.01
20009;BME280;10165;42.662;23.260;2022-08-21T08:15:00;93604.06;;;23.79;61.42
20009;BME280;10165;42.662;23.260;2022-08-21T08:17:27;93600.63;;;23.88;61.42
20009;BME280;10165;42.662;23.260;2022-08-21T08:19:54;93601.53;;;24.19;61.40
20009;BME280;10165;42.662;23.260;2022-08-21T08:22:22;93603.34;;;24.35;61.04
20009;BME280;10165;42.662;23.260;2022-08-21T08:24:52;93600.44;;;24.30;60.89
20009;BME280;10165;42.662;23.260;2022-08-21T08:27:20;93606.75;;;24.26;60.10
20009;BME280;10165;42.662;23.260;2022-08-21T08:29:47;93603.47;;;24.32;60.40
20009;BME280;10165;42.662;23.260;2022-08-21T08:32:14;93600.72;;;24.97;59.10
20009;BME280;10165;42.662;23.260;2022-08-21T08:34:41;93598.88;;;24.94;59.24
20009;BME280;10165;42.662;23.260;2022-08-21T08:37:08;93607.78;;;24.63;57.79
20009;BME280;10165;42.662;23.260;2022-08-21T08:39:36;93610.47;;;24.33;64.40
20009;BME280;10165;42.662;23.260;2022-08-21T08:45:03;93605.81;;;24.64;62.62
20009;BME280;10165;42.662;23.260;2022-08-21T08:47:31;93610.44;;;25.38;59.52
20009;BME280;10165;42.662;23.260;2022-08-21T08:50:20;93612.72;;;24.34;59.24
20009;BME280;10165;42.662;23.260;2022-08-21T08:53:01;93608.41;;;23.90;61.32
20009;BME280;10165;42.662;23.260;2022-08-21T08:55:40;93603.69;;;24.03;62.71
20009;BME280;10165;42.662;23.260;2022-08-21T08:58:23;93594.00;;;24.67;63.50
20009;BME280;10165;42.662;23.260;2022-08-21T09:00:53;93591.59;;;24.25;60.40
20009;BME280;10165;42.662;23.260;2022-08-21T09:03:23;93590.28;;;24.30;58.49
20009;BME280;10165;42.662;23.260;2022-08-21T09:12:25;93578.34;;;25.20;56.96
20009;BME280;10165;42.662;23.260;2022-08-21T09:15:06;93580.00;;;25.57;55.01
20009;BME280;10165;42.662;23.260;2022-08-21T09:25:35;93579.75;;;25.92;55.22
20009;BME280;10165;42.662;23.260;2022-08-21T09:28:07;93571.09;;;25.93;54.54
20009;BME280;10165;42.662;23.260;2022-08-21T09:30:34;93571.56;;;25.43;54.68
20009;BME280;10165;42.662;23.260;2022-08-21T09:33:01;93560.97;;;25.45;55.32
20009;BME280;10165;42.662;23.260;2022-08-21T09:35:28;93560.19;;;25.44;54.95
20009;BME280;10165;42.662;23.260;2022-08-21T09:38:00;93562.06;;;25.65;54.13
20009;BME280;10165;42.662;23.260;2022-08-21T09:40:57;93562.06;;;25.65;54.25
20009;BME280;10165;42.662;23.260;2022-08-21T09:43:24;93559.34;;;25.84;52.70
20009;BME280;10165;42.662;23.260;2022-08-21T09:46:12;93562.22;;;25.62;54.64
20009;BME280;10165;42.662;23.260;2022-08-21T09:48:49;93555.25;;;25.88;54.22
20009;BME280;10165;42.662;23.260;2022-08-21T09:51:22;93561.50;;;25.98;52.53
20009;BME280;10165;42.662;23.260;2022-08-21T09:54:16;93563.75;;;25.63;52.25
20009;BME280;10165;42.662;23.260;2022-08-21T09:56:57;93553.19;;;26.29;51.94
20009;BME280;10165;42.662;23.260;2022-08-21T09:59:44;93554.63;;;26.66;53.11
20009;BME280;10165;42.662;23.260;2022-08-21T10:02:28;93548.28;;;26.42;56.94
20009;BME280;10165;42.662;23.260;2022-08-21T10:05:03;93546.47;;;26.02;52.93
20009;BME280;10165;42.662;23.260;2022-08-21T10:07:31;93541.00;;;26.02;55.11
20009;BME280;10165;42.662;23.260;2022-08-21T10:10:06;93547.38;;;26.36;52.30
20009;BME280;10165;42.662;23.260;2022-08-21T10:12:39;93543.34;;;26.64;54.08
20009;BME280;10165;42.662;23.260;2022-08-21T10:20:29;93533.84;;;26.32;51.83
20009;BME280;10165;42.662;23.260;2022-08-21T10:23:39;93534.31;;;25.18;54.10
20009;BME280;10165;42.662;23.260;2022-08-21T10:35:09;93512.56;;;26.87;50.95
20009;BME280;10165;42.662;23.260;2022-08-21T10:46:22;93512.09;;;26.20;51.53
20009;BME280;10165;42.662;23.260;2022-08-21T10:49:14;93505.75;;;26.64;49.58
20009;BME280;10165;42.662;23.260;2022-08-21T10:54:51;93504.47;;;25.69;51.59
20009;BME280;10165;42.662;23.260;2022-08-21T10:57:48;93496.72;;;25.58;51.94
20009;BME280;10165;42.662;23.260;2022-08-21T11:00:16;93497.50;;;25.59;52.71
20009;BME280;10165;42.662;23.260;2022-08-21T11:03:08;93486.19;;;26.48;50.76
20009;BME280;10165;42.662;23.260;2022-08-21T11:05:47;93484.13;;;26.25;52.04
20009;BME280;10165;42.662;23.260;2022-08-21T11:08:38;93483.81;;;26.04;51.64
20009;BME280;10165;42.662;23.260;2022-08-21T11:11:25;93477.25;;;26.11;52.04
20009;BME280;10165;42.662;23.260;2022-08-21T11:14:08;93468.56;;;25.21;53.58
20009;BME280;10165;42.662;23.260;2022-08-21T11:16:42;93468.44;;;26.07;52.55
20009;BME280;10165;42.662;23.260;2022-08-21T11:19:13;93459.56;;;26.39;51.25
20009;BME280;10165;42.662;23.260;2022-08-21T11:25:03;93464.81;;;26.70;49.27
20009;BME280;10165;42.662;23.260;2022-08-21T11:27:43;93475.13;;;25.88;53.15
20009;BME280;10165;42.662;23.260;2022-08-21T11:30:13;93465.16;;;26.54;51.49
20009;BME280;10165;42.662;23.260;2022-08-21T11:35:56;93462.69;;;26.65;48.66
20009;BME280;10165;42.662;23.260;2022-08-21T11:38:40;93464.97;;;25.61;52.67
20009;BME280;10165;42.662;23.260;2022-08-21T11:41:33;93464.34;;;26.21;52.87
20009;BME280;10165;42.662;23.260;2022-08-21T11:44:13;93458.59;;;26.60;52.41
20009;BME280;10165;42.662;23.260;2022-08-21T11:52:51;93459.78;;;26.69;50.10
20009;BME280;10165;42.662;23.260;2022-08-21T11:55:32;93463.41;;;26.24;51.33
20009;BME280;10165;42.662;23.260;2022-08-21T12:00:57;93464.19;;;26.06;49.82
20009;BME280;10165;42.662;23.260;2022-08-21T12:03:31;93449.72;;;26.75;52.46
20009;BME280;10165;42.662;23.260;2022-08-21T12:06:12;93441.72;;;27.19;48.57
20009;BME280;10165;42.662;23.260;2022-08-21T12:08:58;93436.81;;;27.55;47.41
20009;BME280;10165;42.662;23.260;2022-08-21T12:11:26;93437.53;;;27.08;48.42
20009;BME280;10165;42.662;23.260;2022-08-21T12:16:39;93439.75;;;27.43;50.36
20009;BME280;10165;42.662;23.260;2022-08-21T12:27:14;93443.13;;;27.38;50.05
20009;BME280;10165;42.662;23.260;2022-08-21T12:29:49;93444.50;;;27.66;50.08
20009;BME280;10165;42.662;23.260;2022-08-21T12:40:11;93442.56;;;26.68;50.11
20009;BME280;10165;42.662;23.260;2022-08-21T12:42:44;93444.56;;;27.09;48.63
20009;BME280;10165;42.662;23.260;2022-08-21T12:45:53;93446.31;;;26.89;49.10
20009;BME280;10165;42.662;23.260;2022-08-21T12:51:14;93440.09;;;26.88;48.42
20009;BME280;10165;42.662;23.260;2022-08-21T12:56:15;93436.91;;;26.81;51.25
20009;BME280;10165;42.662;23.260;2022-08-21T12:58:47;93438.59;;;26.78;52.03
20009;BME280;10165;42.662;23.260;2022-08-21T13:03:54;93437.41;;;26.70;51.75
20009;BME280;10165;42.662;23.260;2022-08-21T13:06:37;93429.53;;;26.96;50.37
20009;BME280;10165;42.662;23.260;2022-08-21T13:09:07;93435.56;;;27.33;50.76
20009;BME280;10165;42.662;23.260;2022-08-21T13:11:35;93439.97;;;27.06;53.59
20009;BME280;10165;42.662;23.260;2022-08-21T13:14:28;93438.63;;;27.26;50.34
20009;BME280;10165;42.662;23.260;2022-08-21T13:16:58;93432.56;;;27.22;50.99
20009;BME280;10165;42.662;23.260;2022-08-21T13:19:26;93427.16;;;26.80;50.98
20009;BME280;10165;42.662;23.260;2022-08-21T13:21:53;93415.59;;;26.43;51.52
20009;BME280;10165;42.662;23.260;2022-08-21T13:24:21;93417.69;;;26.90;50.93
20009;BME280;10165;42.662;23.260;2022-08-21T13:27:28;93414.97;;;27.14;50.16
20009;BME280;10165;42.662;23.260;2022-08-21T13:32:41;93392.16;;;27.07;49.41
20009;BME280;10165;42.662;23.260;2022-08-21T13:35:20;93395.09;;;27.42;49.43
20009;BME280;10165;42.662;23.260;2022-08-21T13:37:50;93400.91;;;26.97;49.26
20009;BME280;10165;42.662;23.260;2022-08-21T13:40:40;93404.34;;;27.30;51.58
20009;BME280;10165;42.662;23.260;2022-08-21T13:43:12;93412.56;;;27.54;49.53
20009;BME280;10165;42.662;23.260;2022-08-21T13:45:51;93397.31;;;27.53;47.90
20009;BME280;10165;42.662;23.260;2022-08-21T13:48:18;93399.81;;;27.66;48.56
20009;BME280;10165;42.662;23.260;2022-08-21T13:50:46;93397.41;;;27.82;47.08
20009;BME280;10165;42.662;23.260;2022-08-21T13:55:52;93395.03;;;27.90;46.71
20009;BME280;10165;42.662;23.260;2022-08-21T13:58:41;93392.19;;;27.22;47.79
20009;BME280;10165;42.662;23.260;2022-08-21T14:01:31;93397.69;;;27.22;49.39
20009;BME280;10165;42.662;23.260;2022-08-21T14:04:03;93398.03;;;27.15;50.05
20009;BME280;10165;42.662;23.260;2022-08-21T14:06:34;93392.91;;;27.08;50.10
20009;BME280;10165;42.662;23.260;2022-08-21T14:09:32;93396.41;;;26.76;51.59
20009;BME280;10165;42.662;23.260;2022-08-21T14:12:02;93395.38;;;27.68;49.39
20009;BME280;10165;42.662;23.260;2022-08-21T14:14:48;93394.88;;;27.55;52.48
20009;BME280;10165;42.662;23.260;2022-08-21T14:17:31;93398.22;;;27.35;50.88
20009;BME280;10165;42.662;23.260;2022-08-21T14:19:59;93394.34;;;27.42;53.62
20009;BME280;10165;42.662;23.260;2022-08-21T14:27:53;93408.84;;;25.84;64.23
20009;BME280;10165;42.662;23.260;2022-08-21T14:30:31;93408.09;;;25.92;65.66
20009;BME280;10165;42.662;23.260;2022-08-21T14:33:01;93413.56;;;25.92;67.43
20009;BME280;10165;42.662;23.260;2022-08-21T14:35:28;93416.34;;;25.74;66.89
20009;BME280;10165;42.662;23.260;2022-08-21T14:37:57;93422.09;;;25.85;67.63
20009;BME280;10165;42.662;23.260;2022-08-21T14:40:24;93409.19;;;25.22;65.10
20009;BME280;10165;42.662;23.260;2022-08-21T14:42:52;93407.50;;;25.43;68.93
20009;BME280;10165;42.662;23.260;2022-08-21T14:45:25;93413.75;;;25.61;68.19
20009;BME280;10165;42.662;23.260;2022-08-21T14:47:53;93415.13;;;25.75;68.99